sensor_id;sensor_type;location;lat;lon;timestamp;pressure;altitude;pressure_sealevel;temperature;humidity
41632;BME280;37452;51.938;4.624;2022-08-21T00:02:22;76688.41;;;-142.75;100.00
41632;BME280;37452;51.938;4.624;2022-08-21T00:04:47;76680.53;;;-142.75;100.00
41632;BME280;37452;51.938;4.624;2022-08-21T00:07:13;76684.47;;;-142.75;100.00
41632;BME280;37452;51.938;4.624;2022-08-21T00:09:38;76684.47;;;-142.75;100.00
41632;BME280;37452;51.938;4.624;2022-08-21T00:12:04;76684.47;;;-142.75;100.00
41632;BME280;37452;51.938;4.624;2022-08-21T00:14:29;76688.41;;;-142.75;100.00
41632;BME280;37452;51.938;4.624;2022-08-21T00:16:55;76688.41;;;-142.75;100.00
41632;BME280;37452;51.938;4.624;2022-08-21T00:19:20;76690.38;;;-142.75;100.00
41632;BME280;37452;51.938;4.624;2022-08-21T00:21:49;76680.53;;;-142.75;100.00
41632;BME280;37452;51.938;4.624;2022-08-21T00:24:14;76684.47;;;-142.75;100.00
41632;BME280;37452;51.938;4.624;2022-08-21T00:26:40;76684.47;;;-142.75;100.00
41632;BME280;37452;51.938;4.624;2022-08-21T00:29:05;76686.44;;;-142.75;100.00
41632;BME280;37452;51.938;4.624;2022-08-21T00:31:30;76694.31;;;-142.75;100.00
41632;BME280;37452;51.938;4.624;2022-08-21T00:33:55;76686.44;;;-142.75;100.00
41632;BME280;37452;51.938;4.624;2022-08-21T00:36:20;76684.47;;;-142.75;100.00
41632;BME280;37452;51.938;4.624;2022-08-21T00:38:46;76676.59;;;-142.75;100.00
41632;BME280;37452;51.938;4.624;2022-08-21T00:41:11;76680.53;;;-142.75;100.00
41632;BME280;37452;51.938;4.624;2022-08-21T00:43:37;76680.53;;;-142.75;100.00
41632;BME280;37452;51.938;4.624;2022-08-21T00:46:03;76676.59;;;-142.75;100.00
41632;BME280;37452;51.938;4.624;2022-08-21T00:48:29;76682.50;;;-142.75;100.00
41632;BME280;37452;51.938;4.624;2022-08-21T00:51:00;76676.59;;;-142.75;100.00
41632;BME280;37452;51.938;4.624;2022-08-21T00:53:27;76688.41;;;-142.75;100.00
41632;BME280;37452;51.938;4.624;2022-08-21T00:55:52;76682.50;;;-142.75;100.00
41632;BME280;37452;51.938;4.624;2022-08-21T00:58:19;76690.38;;;-142.75;100.00
41632;BME280;37452;51.938;4.624;2022-08-21T01:00:45;76680.53;;;-142.75;100.00
41632;BME280;37452;51.938;4.624;2022-08-21T01:03:12;76692.34;;;-142.75;100.00
41632;BME280;37452;51.938;4.624;2022-08-21T01:05:38;76696.28;;;-142.75;100.00
41632;BME280;37452;51.938;4.624;2022-08-21T01:08:03;76686.44;;;-142.75;100.00
41632;BME280;37452;51.938;4.624;2022-08-21T01:10:29;76682.50;;;-142.75;100.00
41632;BME280;37452;51.938;4.624;2022-08-21T01:12:55;76676.59;;;-142.75;100.00
41632;BME280;37452;51.938;4.624;2022-08-21T01:15:21;76670.69;;;-142.75;100.00
41632;BME280;37452;51.938;4.624;2022-08-21T01:17:48;76672.66;;;-142.75;100.00
41632;BME280;37452;51.938;4.624;2022-08-21T01:20:14;76672.66;;;-142.75;100.00
41632;BME280;37452;51.938;4.624;2022-08-21T01:22:39;76680.53;;;-142.75;100.00
41632;BME280;37452;51.938;4.624;2022-08-21T01:25:05;76684.47;;;-142.75;100.00
41632;BME280;37452;51.938;4.624;2022-08-21T01:27:31;76692.34;;;-142.75;100.00
41632;BME280;37452;51.938;4.624;2022-08-21T01:30:02;76692.34;;;-142.75;100.00
41632;BME280;37452;51.938;4.624;2022-08-21T01:32:29;76688.41;;;-142.75;100.00
41632;BME280;37452;51.938;4.624;2022-08-21T01:34:54;76694.31;;;-142.75;100.00
41632;BME280;37452;51.938;4.624;2022-08-21T01:37:20;76696.28;;;-142.75;100.00
41632;BME280;37452;51.938;4.624;2022-08-21T01:39:45;76700.22;;;-142.75;100.00
41632;BME280;37452;51.938;4.624;2022-08-21T01:42:11;76696.28;;;-142.75;100.00
41632;BME280;37452;51.938;4.624;2022-08-21T01:44:36;76702.19;;;-142.75;100.00
41632;BME280;37452;51.938;4.624;2022-08-21T01:47:04;76696.28;;;-142.75;100.00
41632;BME280;37452;51.938;4.624;2022-08-21T01:49:29;76704.16;;;-142.75;100.00
41632;BME280;37452;51.938;4.624;2022-08-21T01:51:55;76700.22;;;-142.75;100.00
41632;BME280;37452;51.938;4.624;2022-08-21T01:54:20;76696.28;;;-142.75;100.00
41632;BME280;37452;51.938;4.624;2022-08-21T01:56:47;76702.19;;;-142.75;100.00
41632;BME280;37452;51.938;4.624;2022-08-21T01:59:13;76700.22;;;-142.75;100.00
41632;BME280;37452;51.938;4.624;2022-08-21T02:01:39;76712.03;;;-142.75;100.00
41632;BME280;37452;51.938;4.624;2022-08-21T02:04:04;76704.16;;;-142.75;100.00
41632;BME280;37452;51.938;4.624;2022-08-21T02:06:30;76700.22;;;-142.75;100.00
41632;BME280;37452;51.938;4.624;2022-08-21T02:08:55;76698.25;;;-142.75;100.00
41632;BME280;37452;51.938;4.624;2022-08-21T02:11:20;76706.13;;;-142.75;100.00
41632;BME280;37452;51.938;4.624;2022-08-21T02:13:45;76708.09;;;-142.75;100.00
41632;BME280;37452;51.938;4.624;2022-08-21T02:16:11;76704.16;;;-142.75;100.00
41632;BME280;37452;51.938;4.624;2022-08-21T02:18:36;76700.22;;;-142.75;100.00
41632;BME280;37452;51.938;4.624;2022-08-21T02:21:02;76704.16;;;-142.75;100.00
41632;BME280;37452;51.938;4.624;2022-08-21T02:23:28;76710.06;;;-142.75;100.00
41632;BME280;37452;51.938;4.624;2022-08-21T02:25:54;76725.81;;;-142.75;100.00
41632;BME280;37452;51.938;4.624;2022-08-21T02:28:19;76755.34;;;-142.75;100.00
41632;BME280;37452;51.938;4.624;2022-08-21T02:30:47;76761.25;;;-142.75;100.00
41632;BME280;37452;51.938;4.624;2022-08-21T02:33:13;76761.25;;;-142.75;100.00
41632;BME280;37452;51.938;4.624;2022-08-21T02:35:38;76761.25;;;-142.75;100.00
41632;BME280;37452;51.938;4.624;2022-08-21T02:38:06;76769.13;;;-142.75;100.00
41632;BME280;37452;51.938;4.624;2022-08-21T02:40:33;76777.00;;;-142.75;100.00
41632;BME280;37452;51.938;4.624;2022-08-21T02:42:59;76773.06;;;-142.75;100.00
41632;BME280;37452;51.938;4.624;2022-08-21T02:45:24;76765.19;;;-142.75;100.00
41632;BME280;37452;51.938;4.624;2022-08-21T02:47:54;76771.09;;;-142.75;100.00
41632;BME280;37452;51.938;4.624;2022-08-21T02:50:21;76767.16;;;-142.75;100.00
41632;BME280;37452;51.938;4.624;2022-08-21T02:52:47;76780.94;;;-142.75;100.00
41632;BME280;37452;51.938;4.624;2022-08-21T02:55:12;76780.94;;;-142.75;100.00
41632;BME280;37452;51.938;4.624;2022-08-21T02:57:37;76784.88;;;-142.75;100.00
41632;BME280;37452;51.938;4.624;2022-08-21T03:00:03;76786.84;;;-142.75;100.00
41632;BME280;37452;51.938;4.624;2022-08-21T03:02:29;76786.84;;;-142.75;100.00
41632;BME280;37452;51.938;4.624;2022-08-21T03:04:54;76802.56;;;-142.75;100.00
41632;BME280;37452;51.938;4.624;2022-08-21T03:07:19;76808.50;;;-142.75;100.00
41632;BME280;37452;51.938;4.624;2022-08-21T03:09:45;76806.50;;;-142.75;100.00
41632;BME280;37452;51.938;4.624;2022-08-21T03:12:10;76804.53;;;-142.75;100.00
41632;BME280;37452;51.938;4.624;2022-08-21T03:14:35;76804.53;;;-142.75;100.00
41632;BME280;37452;51.938;4.624;2022-08-21T03:17:00;76798.66;;;-142.75;100.00
41632;BME280;37452;51.938;4.624;2022-08-21T03:19:25;76798.66;;;-142.75;100.00
41632;BME280;37452;51.938;4.624;2022-08-21T03:21:51;76798.66;;;-142.75;100.00
41632;BME280;37452;51.938;4.624;2022-08-21T03:24:16;76808.50;;;-142.75;100.00
41632;BME280;37452;51.938;4.624;2022-08-21T03:26:41;76798.66;;;-142.75;100.00
41632;BME280;37452;51.938;4.624;2022-08-21T03:29:06;76802.56;;;-142.75;100.00
41632;BME280;37452;51.938;4.624;2022-08-21T03:31:32;76814.38;;;-142.75;100.00
41632;BME280;37452;51.938;4.624;2022-08-21T03:33:57;76824.22;;;-142.75;100.00
41632;BME280;37452;51.938;4.624;2022-08-21T03:36:23;76820.28;;;-142.75;100.00
41632;BME280;37452;51.938;4.624;2022-08-21T03:38:48;76832.09;;;-142.75;100.00
41632;BME280;37452;51.938;4.624;2022-08-21T03:41:13;76814.38;;;-142.75;100.00
41632;BME280;37452;51.938;4.624;2022-08-21T03:43:38;76812.41;;;-142.75;100.00
41632;BME280;37452;51.938;4.624;2022-08-21T03:46:04;76824.22;;;-142.75;100.00
41632;BME280;37452;51.938;4.624;2022-08-21T03:48:29;76828.16;;;-142.75;100.00
41632;BME280;37452;51.938;4.624;2022-08-21T03:50:55;76838.00;;;-142.75;100.00
41632;BME280;37452;51.938;4.624;2022-08-21T03:53:21;76826.19;;;-142.75;100.00
41632;BME280;37452;51.938;4.624;2022-08-21T03:55:48;76845.88;;;-142.75;100.00
41632;BME280;37452;51.938;4.624;2022-08-21T03:58:17;76830.13;;;-142.75;100.00
41632;BME280;37452;51.938;4.624;2022-08-21T04:00:47;76826.19;;;-142.75;100.00
41632;BME280;37452;51.938;4.624;2022-08-21T04:03:13;76832.09;;;-142.75;100.00
41632;BME280;37452;51.938;4.624;2022-08-21T04:05:38;76824.22;;;-142.75;100.00
41632;BME280;37452;51.938;4.624;2022-08-21T04:08:04;76824.22;;;-142.75;100.00
41632;BME280;37452;51.938;4.624;2022-08-21T04:10:31;76834.06;;;-142.75;100.00
41632;BME280;37452;51.938;4.624;2022-08-21T04:12:57;76830.13;;;-142.75;100.00
41632;BME280;37452;51.938;4.624;2022-08-21T04:15:23;76834.06;;;-142.75;100.00
41632;BME280;37452;51.938;4.624;2022-08-21T04:17:48;76839.97;;;-142.75;100.00
41632;BME280;37452;51.938;4.624;2022-08-21T04:20:14;76826.19;;;-142.75;100.00
41632;BME280;37452;51.938;4.624;2022-08-21T04:22:40;76839.97;;;-142.75;100.00
41632;BME280;37452;51.938;4.624;2022-08-21T04:25:05;76859.66;;;-142.75;100.00
41632;BME280;37452;51.938;4.624;2022-08-21T04:27:30;76857.69;;;-142.75;100.00
41632;BME280;37452;51.938;4.624;2022-08-21T04:29:55;76849.81;;;-142.75;100.00
41632;BME280;37452;51.938;4.624;2022-08-21T04:32:22;76853.75;;;-142.75;100.00
41632;BME280;37452;51.938;4.624;2022-08-21T04:34:47;76861.63;;;-142.75;100.00
41632;BME280;37452;51.938;4.624;2022-08-21T04:37:12;76855.72;;;-142.75;100.00
41632;BME280;37452;51.938;4.624;2022-08-21T04:39:40;76859.66;;;-142.75;100.00
41632;BME280;37452;51.938;4.624;2022-08-21T04:42:05;76867.53;;;-142.75;100.00
41632;BME280;37452;51.938;4.624;2022-08-21T04:44:31;76873.44;;;-142.75;100.00
41632;BME280;37452;51.938;4.624;2022-08-21T04:46:56;76873.44;;;-142.75;100.00
41632;BME280;37452;51.938;4.624;2022-08-21T04:49:22;76879.34;;;-142.75;100.00
41632;BME280;37452;51.938;4.624;2022-08-21T04:51:47;76879.34;;;-142.75;100.00
41632;BME280;37452;51.938;4.624;2022-08-21T04:54:14;76883.28;;;-142.75;100.00
41632;BME280;37452;51.938;4.624;2022-08-21T04:56:42;76877.38;;;-142.75;100.00
41632;BME280;37452;51.938;4.624;2022-08-21T04:59:11;76891.16;;;-142.75;100.00
41632;BME280;37452;51.938;4.624;2022-08-21T05:01:38;76893.13;;;-142.75;100.00
41632;BME280;37452;51.938;4.624;2022-08-21T05:04:05;76891.16;;;-142.75;100.00
41632;BME280;37452;51.938;4.624;2022-08-21T05:06:31;76885.25;;;-142.75;100.00
41632;BME280;37452;51.938;4.624;2022-08-21T05:08:58;76885.25;;;-142.75;100.00
41632;BME280;37452;51.938;4.624;2022-08-21T05:11:25;76875.41;;;-142.75;100.00
41632;BME280;37452;51.938;4.624;2022-08-21T05:13:50;76869.50;;;-142.75;100.00
41632;BME280;37452;51.938;4.624;2022-08-21T05:16:16;76861.63;;;-142.75;100.00
41632;BME280;37452;51.938;4.624;2022-08-21T05:18:41;76845.88;;;-142.75;100.00
41632;BME280;37452;51.938;4.624;2022-08-21T05:21:06;76822.25;;;-142.75;100.00
41632;BME280;37452;51.938;4.624;2022-08-21T05:23:32;76812.41;;;-142.75;100.00
41632;BME280;37452;51.938;4.624;2022-08-21T05:25:57;76800.63;;;-142.75;100.00
41632;BME280;37452;51.938;4.624;2022-08-21T05:28:23;76782.91;;;-142.75;100.00
41632;BME280;37452;51.938;4.624;2022-08-21T05:30:48;76771.09;;;-142.75;100.00
41632;BME280;37452;51.938;4.624;2022-08-21T05:33:13;76757.31;;;-142.75;100.00
41632;BME280;37452;51.938;4.624;2022-08-21T05:35:39;76729.75;;;-142.75;100.00
41632;BME280;37452;51.938;4.624;2022-08-21T05:38:05;76719.91;;;-142.75;100.00
41632;BME280;37452;51.938;4.624;2022-08-21T05:40:30;76706.13;;;-142.75;100.00
41632;BME280;37452;51.938;4.624;2022-08-21T05:42:56;76690.38;;;-142.75;100.00
41632;BME280;37452;51.938;4.624;2022-08-21T05:45:26;76680.53;;;-142.75;100.00
41632;BME280;37452;51.938;4.624;2022-08-21T05:47:51;76654.94;;;-142.75;100.00
41632;BME280;37452;51.938;4.624;2022-08-21T05:50:17;76643.13;;;-142.75;100.00
41632;BME280;37452;51.938;4.624;2022-08-21T05:52:42;76621.47;;;-142.75;100.00
41632;BME280;37452;51.938;4.624;2022-08-21T05:55:07;76621.47;;;-142.75;100.00
41632;BME280;37452;51.938;4.624;2022-08-21T05:57:32;76595.88;;;-142.75;100.00
41632;BME280;37452;51.938;4.624;2022-08-21T05:59:58;76574.22;;;-142.75;100.00
41632;BME280;37452;51.938;4.624;2022-08-21T06:02:23;76554.53;;;-142.75;100.00
41632;BME280;37452;51.938;4.624;2022-08-21T06:04:48;76542.72;;;-142.75;100.00
41632;BME280;37452;51.938;4.624;2022-08-21T06:07:14;76523.06;;;-142.75;100.00
41632;BME280;37452;51.938;4.624;2022-08-21T06:09:39;76515.19;;;-142.75;100.00
41632;BME280;37452;51.938;4.624;2022-08-21T06:12:06;76489.59;;;-142.75;100.00
41632;BME280;37452;51.938;4.624;2022-08-21T06:14:31;76483.69;;;-142.75;100.00
41632;BME280;37452;51.938;4.624;2022-08-21T06:17:06;76475.81;;;-142.75;100.00
41632;BME280;37452;51.938;4.624;2022-08-21T06:19:32;76471.88;;;-142.75;100.00
41632;BME280;37452;51.938;4.624;2022-08-21T06:21:57;76458.09;;;-142.75;100.00
41632;BME280;37452;51.938;4.624;2022-08-21T06:24:23;76448.25;;;-142.75;100.00
41632;BME280;37452;51.938;4.624;2022-08-21T06:26:48;76410.84;;;-142.75;100.00
41632;BME280;37452;51.938;4.624;2022-08-21T06:29:13;76420.69;;;-142.75;100.00
41632;BME280;37452;51.938;4.624;2022-08-21T06:31:41;76402.97;;;-142.75;100.00
41632;BME280;37452;51.938;4.624;2022-08-21T06:34:07;76402.97;;;-142.75;100.00
41632;BME280;37452;51.938;4.624;2022-08-21T06:36:32;76353.78;;;-142.75;100.00
41632;BME280;37452;51.938;4.624;2022-08-21T06:38:57;76340.00;;;-142.75;100.00
41632;BME280;37452;51.938;4.624;2022-08-21T06:41:22;76328.19;;;-142.75;100.00
41632;BME280;37452;51.938;4.624;2022-08-21T06:43:47;76288.81;;;-142.75;100.00
41632;BME280;37452;51.938;4.624;2022-08-21T06:46:12;76267.16;;;-142.75;100.00
41632;BME280;37452;51.938;4.624;2022-08-21T06:48:38;76251.41;;;-142.75;100.00
41632;BME280;37452;51.938;4.624;2022-08-21T06:51:03;76255.34;;;-142.75;100.00
41632;BME280;37452;51.938;4.624;2022-08-21T06:53:28;76237.63;;;-142.75;100.00
41632;BME280;37452;51.938;4.624;2022-08-21T06:55:53;76229.75;;;-142.75;100.00
41632;BME280;37452;51.938;4.624;2022-08-21T06:58:19;76208.09;;;-142.75;100.00
41632;BME280;37452;51.938;4.624;2022-08-21T07:00:46;76184.50;;;-142.75;100.00
41632;BME280;37452;51.938;4.624;2022-08-21T07:03:22;76196.31;;;-142.75;100.00
41632;BME280;37452;51.938;4.624;2022-08-21T07:05:48;76164.81;;;-142.75;100.00
41632;BME280;37452;51.938;4.624;2022-08-21T07:08:13;76143.16;;;-142.75;100.00
41632;BME280;37452;51.938;4.624;2022-08-21T07:10:38;76141.19;;;-142.75;100.00
41632;BME280;37452;51.938;4.624;2022-08-21T07:13:03;76137.25;;;-142.75;100.00
41632;BME280;37452;51.938;4.624;2022-08-21T07:15:29;76093.94;;;-142.75;100.00
41632;BME280;37452;51.938;4.624;2022-08-21T07:17:54;76072.31;;;-142.75;100.00
41632;BME280;37452;51.938;4.624;2022-08-21T07:20:19;76066.41;;;-142.75;100.00
41632;BME280;37452;51.938;4.624;2022-08-21T07:22:44;76056.56;;;-142.75;100.00
41632;BME280;37452;51.938;4.624;2022-08-21T07:25:10;76042.78;;;-142.75;100.00
41632;BME280;37452;51.938;4.624;2022-08-21T07:27:35;76038.84;;;-142.75;100.00
41632;BME280;37452;51.938;4.624;2022-08-21T07:30:00;76007.34;;;-142.75;100.00
41632;BME280;37452;51.938;4.624;2022-08-21T07:32:25;75977.81;;;-142.75;100.00
41632;BME280;37452;51.938;4.624;2022-08-21T07:34:51;75987.66;;;-142.75;100.00
41632;BME280;37452;51.938;4.624;2022-08-21T07:37:16;75958.16;;;-142.75;100.00
41632;BME280;37452;51.938;4.624;2022-08-21T07:39:41;75989.63;;;-142.75;100.00
41632;BME280;37452;51.938;4.624;2022-08-21T07:42:07;75962.09;;;-142.75;100.00
41632;BME280;37452;51.938;4.624;2022-08-21T07:44:33;75975.84;;;-142.75;100.00
41632;BME280;37452;51.938;4.624;2022-08-21T07:46:59;75926.66;;;-142.75;100.00
41632;BME280;37452;51.938;4.624;2022-08-21T07:49:24;75916.81;;;-142.75;100.00
41632;BME280;37452;51.938;4.624;2022-08-21T07:51:49;75940.44;;;-142.75;100.00
41632;BME280;37452;51.938;4.624;2022-08-21T07:54:15;75897.13;;;-142.75;100.00
41632;BME280;37452;51.938;4.624;2022-08-21T07:56:40;75905.00;;;-142.75;100.00
41632;BME280;37452;51.938;4.624;2022-08-21T07:59:05;75885.31;;;-142.75;100.00
41632;BME280;37452;51.938;4.624;2022-08-21T08:01:30;75867.59;;;-142.75;100.00
41632;BME280;37452;51.938;4.624;2022-08-21T08:03:56;75818.41;;;-142.75;100.00
41632;BME280;37452;51.938;4.624;2022-08-21T08:06:21;75808.56;;;-142.75;100.00
41632;BME280;37452;51.938;4.624;2022-08-21T08:08:46;75790.84;;;-142.75;100.00
41632;BME280;37452;51.938;4.624;2022-08-21T08:11:12;75769.19;;;-142.75;100.00
41632;BME280;37452;51.938;4.624;2022-08-21T08:13:41;75775.09;;;-142.75;100.00
41632;BME280;37452;51.938;4.624;2022-08-21T08:16:06;75765.25;;;-142.75;100.00
41632;BME280;37452;51.938;4.624;2022-08-21T08:18:32;75751.50;;;-142.75;100.00
41632;BME280;37452;51.938;4.624;2022-08-21T08:20:57;75700.31;;;-142.75;100.00
41632;BME280;37452;51.938;4.624;2022-08-21T08:23:22;75684.56;;;-142.75;100.00
41632;BME280;37452;51.938;4.624;2022-08-21T08:25:48;75694.41;;;-142.75;100.00
41632;BME280;37452;51.938;4.624;2022-08-21T08:28:13;75655.06;;;-142.75;100.00
41632;BME280;37452;51.938;4.624;2022-08-21T08:30:38;75670.81;;;-142.75;100.00
41632;BME280;37452;51.938;4.624;2022-08-21T08:33:03;75629.47;;;-142.75;100.00
41632;BME280;37452;51.938;4.624;2022-08-21T08:35:28;75607.81;;;-142.75;100.00
41632;BME280;37452;51.938;4.624;2022-08-21T08:37:54;75586.19;;;-142.75;100.00
41632;BME280;37452;51.938;4.624;2022-08-21T08:40:27;75574.38;;;-142.75;100.00
41632;BME280;37452;51.938;4.624;2022-08-21T08:42:55;75554.69;;;-142.75;100.00
41632;BME280;37452;51.938;4.624;2022-08-21T08:45:20;75493.69;;;-142.75;100.00
41632;BME280;37452;51.938;4.624;2022-08-21T08:47:52;75578.31;;;-142.75;100.00
41632;BME280;37452;51.938;4.624;2022-08-21T08:52:57;75533.03;;;-142.75;100.00
41632;BME280;37452;51.938;4.624;2022-08-21T08:55:26;75556.66;;;-142.75;100.00
41632;BME280;37452;51.938;4.624;2022-08-21T08:57:53;75554.69;;;-142.75;100.00
41632;BME280;37452;51.938;4.624;2022-08-21T09:00:20;75501.56;;;-142.75;100.00
41632;BME280;37452;51.938;4.624;2022-08-21T09:02:46;75511.41;;;-142.75;100.00
41632;BME280;37452;51.938;4.624;2022-08-21T09:05:45;75535.00;;;-142.75;100.00
41632;BME280;37452;51.938;4.624;2022-08-21T09:08:09;75566.50;;;-142.75;100.00
41632;BME280;37452;51.938;4.624;2022-08-21T09:10:59;75576.34;;;-142.75;100.00
41632;BME280;37452;51.938;4.624;2022-08-21T09:16:19;75601.91;;;-142.75;100.00
41632;BME280;37452;51.938;4.624;2022-08-21T09:27:03;75507.47;;;-142.75;100.00
41632;BME280;37452;51.938;4.624;2022-08-21T09:29:31;75499.59;;;-142.75;100.00
41632;BME280;37452;51.938;4.624;2022-08-21T09:31:57;75513.38;;;-142.75;100.00
41632;BME280;37452;51.938;4.624;2022-08-21T09:34:24;75560.59;;;-142.75;100.00
41632;BME280;37452;51.938;4.624;2022-08-21T09:36:50;75613.72;;;-142.75;100.00
41632;BME280;37452;51.938;4.624;2022-08-21T09:39:23;75578.31;;;-142.75;100.00
41632;BME280;37452;51.938;4.624;2022-08-21T09:41:55;75535.00;;;-142.75;100.00
41632;BME280;37452;51.938;4.624;2022-08-21T09:44:24;75470.06;;;-142.75;100.00
41632;BME280;37452;51.938;4.624;2022-08-21T09:46:51;75475.97;;;-142.75;100.00
41632;BME280;37452;51.938;4.624;2022-08-21T09:49:26;75515.31;;;-142.75;100.00
41632;BME280;37452;51.938;4.624;2022-08-21T09:51:51;75542.88;;;-142.75;100.00
41632;BME280;37452;51.938;4.624;2022-08-21T09:54:17;75495.66;;;-142.75;100.00
41632;BME280;37452;51.938;4.624;2022-08-21T09:56:59;75452.34;;;-142.75;100.00
41632;BME280;37452;51.938;4.624;2022-08-21T09:59:44;75432.69;;;-142.75;100.00
41632;BME280;37452;51.938;4.624;2022-08-21T10:02:24;75414.97;;;-142.75;100.00
41632;BME280;37452;51.938;4.624;2022-08-21T10:04:51;75446.44;;;-142.75;99.03
41632;BME280;37452;51.938;4.624;2022-08-21T10:07:20;75416.94;;;-142.75;100.00
41632;BME280;37452;51.938;4.624;2022-08-21T10:09:45;75403.16;;;-142.75;99.80
41632;BME280;37452;51.938;4.624;2022-08-21T10:14:43;75308.69;;;-142.75;89.89
41632;BME280;37452;51.938;4.624;2022-08-21T10:22:12;75257.53;;;-142.75;84.99
41632;BME280;37452;51.938;4.624;2022-08-21T10:27:26;75334.28;;;-142.75;78.41
41632;BME280;37452;51.938;4.624;2022-08-21T10:29:59;75320.50;;;-142.75;75.73
41632;BME280;37452;51.938;4.624;2022-08-21T10:37:56;75292.97;;;-142.75;73.65
41632;BME280;37452;51.938;4.624;2022-08-21T10:40:26;75231.94;;;-142.75;76.39
41632;BME280;37452;51.938;4.624;2022-08-21T10:42:58;75249.66;;;-142.75;74.69
41632;BME280;37452;51.938;4.624;2022-08-21T10:45:45;75306.72;;;-142.75;74.90
41632;BME280;37452;51.938;4.624;2022-08-21T10:48:56;75235.88;;;-142.75;73.65
41632;BME280;37452;51.938;4.624;2022-08-21T10:58:40;75208.34;;;-142.75;68.78
41632;BME280;37452;51.938;4.624;2022-08-21T11:01:11;75202.44;;;-142.75;67.81
41632;BME280;37452;51.938;4.624;2022-08-21T11:03:42;75184.72;;;-142.75;67.42
41632;BME280;37452;51.938;4.624;2022-08-21T11:06:09;75161.13;;;-142.75;68.04
41632;BME280;37452;51.938;4.624;2022-08-21T11:08:41;75119.78;;;-142.75;66.02
41632;BME280;37452;51.938;4.624;2022-08-21T11:11:15;75084.38;;;-142.75;66.25
41632;BME280;37452;51.938;4.624;2022-08-21T11:13:51;75048.94;;;-142.75;67.48
41632;BME280;37452;51.938;4.624;2022-08-21T11:18:53;75233.91;;;-142.75;69.54
41632;BME280;37452;51.938;4.624;2022-08-21T11:21:34;75123.72;;;-142.75;70.99
41632;BME280;37452;51.938;4.624;2022-08-21T11:24:04;75050.91;;;-142.75;69.95
41632;BME280;37452;51.938;4.624;2022-08-21T11:26:59;75041.09;;;-142.75;66.11
41632;BME280;37452;51.938;4.624;2022-08-21T11:29:24;75048.94;;;-142.75;64.77
41632;BME280;37452;51.938;4.624;2022-08-21T11:34:31;75056.81;;;-142.75;67.75
41632;BME280;37452;51.938;4.624;2022-08-21T11:39:53;74993.84;;;-142.75;62.59
41632;BME280;37452;51.938;4.624;2022-08-21T11:45:36;75224.09;;;-142.75;62.52
41632;BME280;37452;51.938;4.624;2022-08-21T11:50:28;75007.63;;;-142.75;62.49
41632;BME280;37452;51.938;4.624;2022-08-21T11:53:00;74995.81;;;-142.75;59.79
41632;BME280;37452;51.938;4.624;2022-08-21T11:58:02;75086.34;;;-142.75;60.82
41632;BME280;37452;51.938;4.624;2022-08-21T12:02:56;75098.16;;;-142.75;59.91
41632;BME280;37452;51.938;4.624;2022-08-21T12:05:27;75054.84;;;-142.75;60.17
41632;BME280;37452;51.938;4.624;2022-08-21T12:08:05;74995.81;;;-142.75;58.55
41632;BME280;37452;51.938;4.624;2022-08-21T12:10:33;75125.69;;;-142.75;58.79
41632;BME280;37452;51.938;4.624;2022-08-21T12:13:05;75115.84;;;-142.75;60.08
41632;BME280;37452;51.938;4.624;2022-08-21T12:15:34;75092.25;;;-142.75;61.15
41632;BME280;37452;51.938;4.624;2022-08-21T12:18:00;75113.88;;;-142.75;61.41
41632;BME280;37452;51.938;4.624;2022-08-21T12:26:03;75045.00;;;-142.75;59.54
41632;BME280;37452;51.938;4.624;2022-08-21T12:28:34;75141.44;;;-142.75;59.64
41632;BME280;37452;51.938;4.624;2022-08-21T12:30:59;75255.56;;;-142.75;61.92
41632;BME280;37452;51.938;4.624;2022-08-21T12:33:30;75291.00;;;-142.75;64.81
41632;BME280;37452;51.938;4.624;2022-08-21T12:36:15;75255.56;;;-142.75;62.48
41632;BME280;37452;51.938;4.624;2022-08-21T12:38:50;75271.31;;;-142.75;64.46
41632;BME280;37452;51.938;4.624;2022-08-21T12:41:18;75200.47;;;-142.75;65.49
41632;BME280;37452;51.938;4.624;2022-08-21T12:43:57;75243.75;;;-142.75;66.27
41632;BME280;37452;51.938;4.624;2022-08-21T12:46:27;75233.91;;;-142.75;64.57
41632;BME280;37452;51.938;4.624;2022-08-21T12:49:00;75226.06;;;-142.75;63.61
41632;BME280;37452;51.938;4.624;2022-08-21T12:51:31;75196.53;;;-142.75;62.21
41632;BME280;37452;51.938;4.624;2022-08-21T12:53:59;75310.66;;;-142.75;62.52
41632;BME280;37452;51.938;4.624;2022-08-21T12:56:31;75306.72;;;-142.75;66.53
41632;BME280;37452;51.938;4.624;2022-08-21T12:59:02;75263.44;;;-142.75;64.77
41632;BME280;37452;51.938;4.624;2022-08-21T13:01:29;75231.94;;;-142.75;61.90
41632;BME280;37452;51.938;4.624;2022-08-21T13:03:57;75253.59;;;-142.75;64.45
41632;BME280;37452;51.938;4.624;2022-08-21T13:06:24;75334.28;;;-142.75;63.95
41632;BME280;37452;51.938;4.624;2022-08-21T13:08:53;75407.09;;;-142.75;63.75
41632;BME280;37452;51.938;4.624;2022-08-21T13:11:20;75361.84;;;-142.75;62.87
41632;BME280;37452;51.938;4.624;2022-08-21T13:13:50;75332.31;;;-142.75;62.67
41632;BME280;37452;51.938;4.624;2022-08-21T13:16:26;75320.50;;;-142.75;63.54
41632;BME280;37452;51.938;4.624;2022-08-21T13:19:00;75233.91;;;-142.75;62.34
41632;BME280;37452;51.938;4.624;2022-08-21T13:21:33;75243.75;;;-142.75;63.68
41632;BME280;37452;51.938;4.624;2022-08-21T13:24:09;75267.38;;;-142.75;64.67
41632;BME280;37452;51.938;4.624;2022-08-21T13:26:35;75291.00;;;-142.75;63.11
41632;BME280;37452;51.938;4.624;2022-08-21T13:29:06;75330.34;;;-142.75;63.33
41632;BME280;37452;51.938;4.624;2022-08-21T13:31:32;75302.78;;;-142.75;65.69
41632;BME280;37452;51.938;4.624;2022-08-21T13:33:58;75328.38;;;-142.75;65.28
41632;BME280;37452;51.938;4.624;2022-08-21T13:36:24;75365.75;;;-142.75;68.69